Map

Track Data

SID SEASON NUMBER BASIN SUBBASIN NAME ISO_TIME NATURE LAT LON WMO_WIND WMO_PRES WMO_AGENCY TRACK_TYPE DIST2LAND LANDFALL IFLAG USA_AGENCY USA_ATCF_ID USA_LAT USA_LON USA_RECORD USA_STATUS USA_WIND USA_PRES USA_SSHS USA_R34_NE USA_R34_SE USA_R34_SW USA_R34_NW USA_R50_NE USA_R50_SE USA_R50_SW USA_R50_NW USA_R64_NE USA_R64_SE USA_R64_SW USA_R64_NW USA_POCI USA_ROCI USA_RMW USA_EYE TOKYO_LAT TOKYO_LON TOKYO_GRADE TOKYO_WIND TOKYO_PRES TOKYO_R50_DIR TOKYO_R50_LONG TOKYO_R50_SHORT TOKYO_R30_DIR TOKYO_R30_LONG TOKYO_R30_SHORT TOKYO_LAND CMA_LAT CMA_LON CMA_CAT CMA_WIND CMA_PRES HKO_LAT HKO_LON HKO_CAT HKO_WIND HKO_PRES NEWDELHI_LAT NEWDELHI_LON NEWDELHI_GRADE NEWDELHI_WIND NEWDELHI_PRES NEWDELHI_CI NEWDELHI_DP NEWDELHI_POCI REUNION_LAT REUNION_LON REUNION_TYPE REUNION_WIND REUNION_PRES REUNION_TNUM REUNION_CI REUNION_RMW REUNION_R34_NE REUNION_R34_SE REUNION_R34_SW REUNION_R34_NW REUNION_R50_NE REUNION_R50_SE REUNION_R50_SW REUNION_R50_NW REUNION_R64_NE REUNION_R64_SE REUNION_R64_SW REUNION_R64_NW BOM_LAT BOM_LON BOM_TYPE BOM_WIND BOM_PRES BOM_TNUM BOM_CI BOM_RMW BOM_R34_NE BOM_R34_SE BOM_R34_SW BOM_R34_NW BOM_R50_NE BOM_R50_SE BOM_R50_SW BOM_R50_NW BOM_R64_NE BOM_R64_SE BOM_R64_SW BOM_R64_NW BOM_ROCI BOM_POCI BOM_EYE BOM_POS_METHOD BOM_PRES_METHOD NADI_LAT NADI_LON NADI_CAT NADI_WIND NADI_PRES WELLINGTON_LAT WELLINGTON_LON WELLINGTON_WIND WELLINGTON_PRES DS824_LAT DS824_LON DS824_STAGE DS824_WIND DS824_PRES TD9636_LAT TD9636_LON TD9636_STAGE TD9636_WIND TD9636_PRES TD9635_LAT TD9635_LON TD9635_WIND TD9635_PRES TD9635_ROCI NEUMANN_LAT NEUMANN_LON NEUMANN_CLASS NEUMANN_WIND NEUMANN_PRES MLC_LAT MLC_LON MLC_CLASS MLC_WIND MLC_PRES USA_GUST BOM_GUST BOM_GUST_PER REUNION_GUST REUNION_GUST_PER USA_SEAHGT USA_SEARAD_NE USA_SEARAD_SE USA_SEARAD_SW USA_SEARAD_NW STORM_SPEED STORM_DIR
1998271S05084 1999 72 SI MM NOT_NAMED 1998-09-27 12:00:00 TS -5.40000 83.8000 main 1315 1306 O___________O_ jtwc_sh SH021999 -5.40000 83.8000 25 -1 -5.40000 83.8000 TC 25 6 274
1998271S05084 1999 72 SI MM NOT_NAMED 1998-09-27 15:00:00 TS -5.37507 83.4775 main 1306 1298 P___________P_ SH021999 -5.37507 83.4775 25 -1 -5.37507 83.4775 TC 25 6 270
1998271S05084 1999 72 SI MM NOT_NAMED 1998-09-27 18:00:00 TS -5.40000 83.2000 main 1298 1296 O___________O_ jtwc_sh SH021999 -5.40000 83.2000 25 -1 -5.40000 83.2000 TC 25 5 255
1998271S05084 1999 72 SI MM NOT_NAMED 1998-09-27 21:00:00 TS -5.51242 82.9799 main 1305 1302 P___________P_ SH021999 -5.51242 82.9799 25 -1 -5.51242 82.9799 TC 25 6 239
1998271S05084 1999 72 SI MM NOT_NAMED 1998-09-28 00:00:00 TS -5.70000 82.7000 main 1320 1318 O___________O_ jtwc_sh SH021999 -5.70000 82.7000 25 -1 -5.70000 82.7000 TC 25 8 243
1998271S05084 1999 72 SI MM NOT_NAMED 1998-09-28 03:00:00 TS -5.88255 82.2373 main 1334 1332 P___________P_ SH021999 -5.88255 82.2373 25 -1 -5.88255 82.2373 TC 25 11 243
1998271S05084 1999 72 SI MM NOT_NAMED 1998-09-28 06:00:00 TS -6.20000 81.7000 main 1361 1361 O___________O_ jtwc_sh SH021999 -6.20000 81.7000 25 -1 -6.20000 81.7000 TC 25 14 228
1998271S05084 1999 72 SI MM NOT_NAMED 1998-09-28 09:00:00 TS -6.79243 81.2076 main 1424 1424 P___________P_ SH021999 -6.79243 81.2076 25 -1 -6.79243 81.2076 TC 25 16 220
1998271S05084 1999 72 SI MM NOT_NAMED 1998-09-28 12:00:00 TS -7.40000 80.7000 main 1490 1490 O___________O_ jtwc_sh SH021999 -7.40000 80.7000 25 -1 -7.40000 80.7000 TC 25 15 228
1998271S05084 1999 72 SI MM NOT_NAMED 1998-09-28 15:00:00 TS -7.76756 80.1199 main 1536 1536 P___________P_ SH021999 -7.76756 80.1199 25 -1 -7.76756 80.1199 TC 25 12 241
1998271S05084 1999 72 SI MM NOT_NAMED 1998-09-28 18:00:00 TS -8.00000 79.6000 main 1561 1561 O___________O_ jtwc_sh SH021999 -8.00000 79.6000 25 -1 -8.00000 79.6000 TC 25 9 245
1998271S05084 1999 72 SI MM NOT_NAMED 1998-09-28 21:00:00 TS -8.17237 79.2624 main 1586 1586 P___________P_ SH021999 -8.17237 79.2624 27 -1 -8.17237 79.2624 TC 27 7 243
1998271S05084 1999 72 SI MM NOT_NAMED 1998-09-29 00:00:00 TS -8.30000 79.0000 main 1601 1601 O___________O_ jtwc_sh SH021999 -8.30000 79.0000 30 -1 -8.30000 79.0000 TC 30 6 243
1998271S05084 1999 72 SI MM NOT_NAMED 1998-09-29 03:00:00 TS -8.45749 78.6925 main 1627 1627 P___________P_ SH021999 -8.45749 78.6925 32 -1 -8.45749 78.6925 TC 32 7 243
1998271S05084 1999 72 SI MM NOT_NAMED 1998-09-29 06:00:00 TS -8.60000 78.4000 main 1643 1643 O___________O_ jtwc_sh SH021999 -8.60000 78.4000 35 0 -8.60000 78.4000 TC 35 6 246
1998271S05084 1999 72 SI MM NOT_NAMED 1998-09-29 09:00:00 TS -8.70748 78.1350 main 1659 1659 P___________P_ SH021999 -8.70748 78.1350 35 0 -8.70748 78.1350 TC 35 5 248
1998271S05084 1999 72 SI MM NOT_NAMED 1998-09-29 12:00:00 TS -8.80000 77.9000 main 1674 1674 O___________O_ jtwc_sh SH021999 -8.80000 77.9000 35 0 -8.80000 77.9000 TC 35 5 247
1998271S05084 1999 72 SI MM NOT_NAMED 1998-09-29 15:00:00 TS -8.89246 77.7000 main 1689 1689 P___________P_ SH021999 -8.89246 77.7000 35 0 -8.89246 77.7000 TC 35 4 243
1998271S05084 1999 72 SI MM NOT_NAMED 1998-09-29 18:00:00 TS -9.00000 77.5000 main 1704 1704 O___________O_ jtwc_sh SH021999 -9.00000 77.5000 35 0 -9.00000 77.5000 TC 35 5 240
1998271S05084 1999 72 SI MM NOT_NAMED 1998-09-29 21:00:00 TS -9.13496 77.2725 main 1720 1720 P___________P_ SH021999 -9.13496 77.2725 32 -1 -9.13496 77.2725 TC 32 6 239
1998271S05084 1999 72 SI MM NOT_NAMED 1998-09-30 00:00:00 TS -9.30000 77.0000 main 1749 1749 O___________O_ jtwc_sh SH021999 -9.30000 77.0000 30 -1 -9.30000 77.0000 TC 30 7 238
1998271S05084 1999 72 SI MM NOT_NAMED 1998-09-30 03:00:00 TS -9.49243 76.6875 main 1778 1778 P___________P_ SH021999 -9.49243 76.6875 30 -1 -9.49243 76.6875 TC 30 8 240
1998271S05084 1999 72 SI MM NOT_NAMED 1998-09-30 06:00:00 TS -9.70000 76.3000 main 1811 1811 O___________O_ jtwc_sh SH021999 -9.70000 76.3000 30 -1 -9.70000 76.3000 TC 30 10 245
1998271S05084 1999 72 SI MM NOT_NAMED 1998-09-30 09:00:00 TS -9.89255 75.8150 main 1848 1848 P___________P_ SH021999 -9.89255 75.8150 30 -1 -9.89255 75.8150 TC 30 11 248
1998271S05084 1999 72 SI MM NOT_NAMED 1998-09-30 12:00:00 TS -10.1000 75.3000 main 1886 1886 O___________O_ jtwc_sh SH021999 -10.1000 75.3000 30 -1 -10.1000 75.3000 TC 30 11 245
1998271S05084 1999 72 SI MM NOT_NAMED 1998-09-30 15:00:00 TS -10.3349 74.8499 main 1925 1925 P___________P_ SH021999 -10.3349 74.8499 30 -1 -10.3349 74.8499 TC 30 10 241
1998271S05084 1999 72 SI MM NOT_NAMED 1998-09-30 18:00:00 TS -10.6000 74.4000 main 1971 1971 O___________O_ jtwc_sh SH021999 -10.6000 74.4000 30 -1 -10.6000 74.4000 TC 30 11 240
1998271S05084 1999 72 SI MM NOT_NAMED 1998-09-30 21:00:00 TS -10.8699 73.9148 main 2016 1952 P___________P_ SH021999 -10.8699 73.9148 30 -1 -10.8699 73.9148 TC 30 12 239
1998271S05084 1999 72 SI MM NOT_NAMED 1998-10-01 00:00:00 TS -11.2000 73.4000 main 1952 1882 O___________O_ jtwc_sh SH021999 -11.2000 73.4000 30 -1 -11.2000 73.4000 TC 30 13 234
1998271S05084 1999 72 SI MM NOT_NAMED 1998-10-01 03:00:00 TS -11.6350 72.8426 main 1873 1797 P___________P_ SH021999 -11.6350 72.8426 32 -1 -11.6350 72.8426 TC 32 14 230
1998271S05084 1999 72 SI MM NOT_NAMED 1998-10-01 06:00:00 TS -12.1000 72.3000 main 1797 1727 O___________O_ jtwc_sh SH021999 -12.1000 72.3000 35 0 -12.1000 72.3000 TC 35 13 230
1998271S05084 1999 72 SI MM NOT_NAMED 1998-10-01 09:00:00 TS -12.4849 71.8197 main 1727 1667 P___________P_ SH021999 -12.4849 71.8197 32 -1 -12.4849 71.8197 TC 32 12 228
1998271S05084 1999 72 SI MM NOT_NAMED 1998-10-01 12:00:00 TS -12.9000 71.4000 main 1667 1601 O___________O_ jtwc_sh SH021999 -12.9000 71.4000 30 -1 -12.9000 71.4000 TC 30 12 219
1998271S05084 1999 72 SI MM NOT_NAMED 1998-10-01 15:00:00 TS -13.4349 71.0200 main 1601 1540 P___________P_ SH021999 -13.4349 71.0200 30 -1 -13.4349 71.0200 TC 30 13 212
1998271S05084 1999 72 SI MM NOT_NAMED 1998-10-01 18:00:00 TS -14.0000 70.7000 main 1540 1485 O___________O_ jtwc_sh SH021999 -14.0000 70.7000 30 -1 -14.0000 70.7000 TC 30 13 208
1998271S05084 1999 72 SI MM NOT_NAMED 1998-10-01 21:00:00 TS -14.5525 70.4050 main 1480 1440 P___________P_ SH021999 -14.5525 70.4050 30 -1 -14.5525 70.4050 TC 30 11 206
1998271S05084 1999 72 SI MM NOT_NAMED 1998-10-02 00:00:00 TS -15.0000 70.2000 main 1440 1421 O___________O_ jtwc_sh SH021999 -15.0000 70.2000 30 -1 -15.0000 70.2000 TC 30 7 202
1998271S05084 1999 72 SI MM NOT_NAMED 1998-10-02 03:00:00 TS -15.2374 70.1198 main 1421 1412 P___________P_ SH021999 -15.2374 70.1198 30 -1 -15.2374 70.1198 TC 30 4 193
1998271S05084 1999 72 SI MM NOT_NAMED 1998-10-02 06:00:00 TS -15.4000 70.1000 main 1412 1402 O___________O_ jtwc_sh SH021999 -15.4000 70.1000 30 -1 -15.4000 70.1000 TC 30 4 188
1998271S05084 1999 72 SI MM NOT_NAMED 1998-10-02 09:00:00 TS -15.6575 70.0650 main 1398 1379 P___________P_ SH021999 -15.6575 70.0650 27 -1 -15.6575 70.0650 TC 27 5 191
1998271S05084 1999 72 SI MM NOT_NAMED 1998-10-02 12:00:00 TS -15.9000 70.0000 main 1379 1361 O___________O_ jtwc_sh SH021999 -15.9000 70.0000 25 -1 -15.9000 70.0000 TC 25 5 204
1998271S05084 1999 72 SI MM NOT_NAMED 1998-10-02 15:00:00 TS -16.0725 69.8700 main 1361 1337 P___________P_ SH021999 -16.0725 69.8700 22 -1 -16.0725 69.8700 TC 22 4 224
1998271S05084 1999 72 SI MM NOT_NAMED 1998-10-02 18:00:00 TS -16.2000 69.7000 main 1337 O___________O_ jtwc_sh SH021999 -16.2000 69.7000 20 -1 -16.2000 69.7000 TC 20 4 232

About IBTrACS Database

This database is a web-friendly format of International Best Track Archive for Climate Stewardship (IBTrACS), a global best track data archive curated by NOAA dating back to 1842.

Updated: 2021-12-06